Time;durP1;ratioP1;P1;durP2;ratioP2;P2;SDS_P1;SDS_P2;PMS_P1;PMS_P2;Temp;Humidity;BMP_temperature;BMP_pressure;BME280_temperature;BME280_humidity;BME280_pressure;Samples;Min_cycle;Max_cycle;Signal;HPM_P1;HPM_P2
2022/01/31 00:02:15;;;;;;;22.73;4.10;;;3.90;99.90;;;;;;5004961;28;20191;-71
2022/01/31 00:04:44;;;;;;;22.10;4.00;;;3.90;99.90;;;;;;4976998;28;20397;-71
2022/01/31 00:07:12;;;;;;;27.60;4.83;;;3.90;99.90;;;;;;4974353;28;20185;-71
2022/01/31 00:09:41;;;;;;;21.67;3.93;;;3.90;99.90;;;;;;4989484;28;20223;-71
2022/01/31 00:12:11;;;;;;;21.37;4.13;;;3.90;99.90;;;;;;4991001;28;20707;-71
2022/01/31 00:17:03;;;;;;;20.30;4.03;;;3.90;99.90;;;;;;4991970;28;20182;-71
2022/01/31 00:19:28;;;;;;;25.97;4.33;;;3.90;99.90;;;;;;4986478;28;20217;-71
2022/01/31 00:21:54;;;;;;;25.77;4.40;;;3.90;99.90;;;;;;4985587;28;20259;-70
2022/01/31 00:24:20;;;;;;;21.23;4.17;;;4.00;99.90;;;;;;4994710;28;20176;-71
2022/01/31 00:26:46;;;;;;;23.17;4.00;;;4.00;99.90;;;;;;4994577;28;20172;-71
2022/01/31 00:29:11;;;;;;;17.13;3.40;;;4.00;99.90;;;;;;4993543;28;20199;-71
2022/01/31 00:31:37;;;;;;;25.27;4.20;;;4.00;99.90;;;;;;4994272;28;20215;-71
2022/01/31 00:34:03;;;;;;;20.37;3.67;;;4.00;99.90;;;;;;4994280;28;20212;-71
2022/01/31 00:36:28;;;;;;;19.67;3.67;;;4.00;99.90;;;;;;4992062;28;20173;-71
2022/01/31 00:38:54;;;;;;;18.47;4.07;;;4.00;99.90;;;;;;4990304;28;20185;-71
2022/01/31 00:41:20;;;;;;;16.87;3.90;;;3.90;99.90;;;;;;4990939;28;20251;-71
2022/01/31 00:43:56;;;;;;;24.70;3.63;;;4.00;99.90;;;;;;4985652;28;20188;-71
2022/01/31 00:46:27;;;;;;;21.07;3.90;;;4.00;99.90;;;;;;4994116;28;20684;-70
2022/01/31 00:48:53;;;;;;;18.70;4.13;;;4.00;99.90;;;;;;4993497;28;20172;-70
2022/01/31 00:51:19;;;;;;;22.97;3.90;;;4.00;99.90;;;;;;5005890;28;20738;-71
2022/01/31 00:53:44;;;;;;;23.27;4.10;;;4.00;99.90;;;;;;4993765;28;20205;-71
2022/01/31 00:56:10;;;;;;;17.10;4.57;;;4.00;99.90;;;;;;4993916;28;20178;-70
2022/01/31 00:58:36;;;;;;;19.87;3.00;;;4.10;99.90;;;;;;4992838;28;20181;-70
2022/01/31 01:01:02;;;;;;;15.37;3.63;;;4.00;99.90;;;;;;4994038;28;20205;-70
2022/01/31 01:03:28;;;;;;;19.03;3.30;;;4.10;99.90;;;;;;4989198;28;20201;-70
2022/01/31 01:05:53;;;;;;;9.50;2.97;;;4.00;99.90;;;;;;5029800;28;20213;-71
2022/01/31 01:08:19;;;;;;;19.17;3.30;;;4.00;99.90;;;;;;5000796;28;20184;-71
2022/01/31 01:10:45;;;;;;;10.67;3.20;;;4.00;99.90;;;;;;5009617;28;20736;-71
2022/01/31 01:13:11;;;;;;;13.73;3.20;;;4.10;99.90;;;;;;5010899;28;20208;-70
2022/01/31 01:15:37;;;;;;;14.77;3.67;;;4.00;99.90;;;;;;4994045;28;20283;-70
2022/01/31 01:18:03;;;;;;;15.47;3.00;;;4.00;99.90;;;;;;5013196;28;20270;-71
2022/01/31 01:20:29;;;;;;;18.47;4.03;;;4.00;99.90;;;;;;5022939;28;20329;-70
2022/01/31 01:22:55;;;;;;;16.33;3.00;;;4.00;99.90;;;;;;4990109;28;20280;-70
2022/01/31 01:25:23;;;;;;;15.57;3.20;;;4.00;99.90;;;;;;4986804;28;20279;-71
2022/01/31 01:27:52;;;;;;;12.50;3.00;;;4.00;99.90;;;;;;5009474;28;20185;-71
2022/01/31 01:30:19;;;;;;;11.70;3.30;;;4.00;99.90;;;;;;4993404;28;20287;-70
2022/01/31 01:35:16;;;;;;;17.17;3.60;;;4.10;99.90;;;;;;4990848;28;20180;-71
2022/01/31 01:37:41;;;;;;;12.13;3.20;;;4.10;99.90;;;;;;4999327;28;20190;-71
2022/01/31 01:40:08;;;;;;;11.80;2.83;;;4.10;99.90;;;;;;4992557;28;20595;-70
2022/01/31 01:42:34;;;;;;;13.33;3.13;;;4.10;99.90;;;;;;4992859;28;20239;-70
2022/01/31 01:45:00;;;;;;;16.90;3.33;;;4.10;99.90;;;;;;5009391;28;20623;-72
2022/01/31 01:47:26;;;;;;;17.07;3.63;;;4.10;99.90;;;;;;4992263;28;20721;-72
2022/01/31 01:49:53;;;;;;;13.53;3.67;;;4.10;99.90;;;;;;4992379;28;20192;-71
2022/01/31 01:52:19;;;;;;;13.37;3.13;;;4.10;99.90;;;;;;4991160;28;20191;-72
2022/01/31 01:54:46;;;;;;;16.60;3.33;;;4.10;99.90;;;;;;4987283;28;21265;-72
2022/01/31 01:57:12;;;;;;;13.87;3.40;;;4.10;99.90;;;;;;4992935;28;20239;-72
2022/01/31 01:59:40;;;;;;;13.17;3.23;;;4.10;99.90;;;;;;4991686;28;20280;-72
2022/01/31 02:02:06;;;;;;;15.40;3.53;;;4.10;99.90;;;;;;5017204;28;20307;-72
2022/01/31 02:04:32;;;;;;;17.70;3.53;;;4.20;99.90;;;;;;5008831;28;20263;-72
2022/01/31 02:06:58;;;;;;;11.03;3.83;;;4.10;99.90;;;;;;4989683;28;20185;-72
2022/01/31 02:09:29;;;;;;;13.57;3.83;;;4.10;99.90;;;;;;5007790;28;20588;-72
2022/01/31 02:11:57;;;;;;;9.17;3.30;;;4.10;99.90;;;;;;4992125;28;20206;-72
2022/01/31 02:14:23;;;;;;;11.63;3.90;;;4.20;99.90;;;;;;4991123;28;20209;-72
2022/01/31 02:16:50;;;;;;;12.70;4.00;;;4.20;99.90;;;;;;4973094;28;20174;-71
2022/01/31 02:19:21;;;;;;;10.33;3.47;;;4.20;99.90;;;;;;4972189;28;20175;-72
2022/01/31 02:21:51;;;;;;;17.77;4.10;;;4.20;99.90;;;;;;4982949;28;20270;-73
2022/01/31 02:24:17;;;;;;;14.73;4.47;;;4.20;99.90;;;;;;5008485;28;20598;-72
2022/01/31 02:26:43;;;;;;;16.07;5.10;;;4.20;99.90;;;;;;4991477;28;20200;-72
2022/01/31 02:29:11;;;;;;;22.67;5.73;;;4.20;99.90;;;;;;4991378;28;20219;-72
2022/01/31 02:31:41;;;;;;;12.93;4.07;;;4.20;99.90;;;;;;5008672;28;20542;-72
2022/01/31 02:34:07;;;;;;;13.63;4.20;;;4.30;99.90;;;;;;5008451;28;20201;-72
2022/01/31 02:36:33;;;;;;;21.20;4.67;;;4.30;99.90;;;;;;4996338;28;20196;-72
2022/01/31 02:38:59;;;;;;;23.23;4.90;;;4.30;99.90;;;;;;4991646;28;20181;-72
2022/01/31 02:41:27;;;;;;;17.70;5.20;;;4.30;99.90;;;;;;4988210;28;20204;-72
2022/01/31 02:43:54;;;;;;;14.63;4.60;;;4.30;99.90;;;;;;4989679;28;20201;-72
2022/01/31 02:46:23;;;;;;;19.10;5.47;;;4.30;99.90;;;;;;4991909;28;20189;-72
2022/01/31 02:48:50;;;;;;;18.63;5.30;;;4.30;99.90;;;;;;5005385;28;20181;-72
2022/01/31 02:51:21;;;;;;;13.43;4.30;;;4.30;99.90;;;;;;4991589;28;20240;-72
2022/01/31 02:53:46;;;;;;;12.47;5.00;;;4.30;99.90;;;;;;5010887;28;20217;-72
2022/01/31 02:56:12;;;;;;;14.43;4.77;;;4.20;99.90;;;;;;5011626;28;20206;-73
2022/01/31 02:58:38;;;;;;;15.70;4.77;;;4.20;99.90;;;;;;5002564;28;20200;-72
2022/01/31 03:01:04;;;;;;;16.27;4.87;;;4.20;99.90;;;;;;4991548;28;20233;-72
2022/01/31 03:03:30;;;;;;;17.70;4.60;;;4.30;99.90;;;;;;5026851;28;20220;-72
2022/01/31 03:05:56;;;;;;;14.23;5.33;;;4.20;99.90;;;;;;5011542;28;20222;-72
2022/01/31 03:08:23;;;;;;;13.30;5.00;;;4.20;99.90;;;;;;4994380;28;20272;-72
2022/01/31 03:10:49;;;;;;;14.43;4.80;;;4.10;99.90;;;;;;4990486;28;20550;-72
2022/01/31 03:13:15;;;;;;;12.67;5.13;;;4.10;99.90;;;;;;4993959;28;20697;-72
2022/01/31 03:15:41;;;;;;;8.40;4.10;;;4.00;99.90;;;;;;4995784;28;20224;-72
2022/01/31 03:18:07;;;;;;;11.23;4.97;;;3.90;99.90;;;;;;4971552;28;20764;-72
2022/01/31 03:20:33;;;;;;;13.23;5.13;;;3.90;99.90;;;;;;4970986;28;20224;-72
2022/01/31 03:22:59;;;;;;;18.43;5.17;;;3.80;99.90;;;;;;4990122;28;20749;-72
2022/01/31 03:25:25;;;;;;;11.30;4.93;;;3.70;99.90;;;;;;4990956;28;20181;-72
2022/01/31 03:27:51;;;;;;;10.77;5.07;;;3.70;99.90;;;;;;4990730;28;20188;-72
2022/01/31 03:30:20;;;;;;;13.30;5.53;;;3.60;99.90;;;;;;4990030;28;20295;-72
2022/01/31 03:32:46;;;;;;;11.67;5.10;;;3.50;99.90;;;;;;4991082;28;20209;-72
2022/01/31 03:35:12;;;;;;;15.63;5.43;;;3.40;99.90;;;;;;5016435;28;20186;-72
2022/01/31 03:37:38;;;;;;;11.33;5.20;;;3.30;99.90;;;;;;4987429;28;20181;-72
2022/01/31 03:40:06;;;;;;;8.47;5.30;;;3.20;99.90;;;;;;4970878;28;20668;-72
2022/01/31 03:42:32;;;;;;;12.63;5.13;;;3.20;99.90;;;;;;4971853;28;20211;-72
2022/01/31 03:44:58;;;;;;;14.60;6.90;;;3.10;99.90;;;;;;4978352;28;20553;-72
2022/01/31 03:47:23;;;;;;;11.73;5.80;;;3.00;99.90;;;;;;4991246;28;20185;-72
2022/01/31 03:49:50;;;;;;;17.67;5.90;;;2.90;99.90;;;;;;4990128;28;20183;-72
2022/01/31 03:52:17;;;;;;;13.67;5.60;;;2.90;99.90;;;;;;4990753;28;20212;-72
2022/01/31 03:54:43;;;;;;;13.57;6.03;;;2.80;99.90;;;;;;4990689;28;20192;-72
2022/01/31 03:57:09;;;;;;;11.83;5.63;;;2.80;99.90;;;;;;4993222;28;20203;-72
2022/01/31 03:59:35;;;;;;;16.73;5.77;;;2.80;99.90;;;;;;4994086;28;20179;-72
2022/01/31 04:02:04;;;;;;;13.63;6.47;;;2.80;99.90;;;;;;4994599;28;20254;-72
2022/01/31 04:04:29;;;;;;;14.60;5.67;;;2.70;99.90;;;;;;4994150;28;20247;-72
2022/01/31 04:06:55;;;;;;;10.20;5.97;;;2.70;99.90;;;;;;4994896;28;20270;-72
2022/01/31 04:09:21;;;;;;;11.60;5.77;;;2.70;99.90;;;;;;5005542;28;20644;-72
2022/01/31 04:11:46;;;;;;;14.07;5.90;;;2.70;99.90;;;;;;4991426;28;20303;-72
2022/01/31 04:14:13;;;;;;;10.33;5.47;;;2.60;99.90;;;;;;4975473;28;20297;-72
2022/01/31 04:16:39;;;;;;;13.23;5.53;;;2.60;99.90;;;;;;5005078;28;20207;-73
2022/01/31 04:19:05;;;;;;;13.13;5.97;;;2.60;99.90;;;;;;4998334;28;20316;-72
2022/01/31 04:21:31;;;;;;;11.00;5.70;;;2.60;99.90;;;;;;4994142;28;20257;-72
2022/01/31 04:23:56;;;;;;;9.17;6.40;;;2.50;99.90;;;;;;4994488;28;20181;-72
2022/01/31 04:26:22;;;;;;;10.23;5.77;;;2.50;99.90;;;;;;4993907;28;20274;-72
2022/01/31 04:29:01;;;;;;;11.07;5.67;;;2.50;99.90;;;;;;4991427;28;20691;-72
2022/01/31 04:31:42;;;;;;;10.10;5.53;;;2.50;99.90;;;;;;4993829;28;20755;-72
2022/01/31 04:34:09;;;;;;;9.43;6.03;;;2.50;99.90;;;;;;4993847;28;20202;-72
2022/01/31 04:36:34;;;;;;;10.27;5.77;;;2.50;99.90;;;;;;4993778;28;20588;-71
2022/01/31 04:39:01;;;;;;;10.73;5.50;;;2.50;99.90;;;;;;4993304;28;20174;-72
2022/01/31 04:41:26;;;;;;;7.50;5.87;;;2.40;99.90;;;;;;4993491;28;20758;-71
2022/01/31 04:43:55;;;;;;;11.90;6.67;;;2.40;99.90;;;;;;4992092;28;20288;-72
2022/01/31 04:46:21;;;;;;;8.23;5.90;;;2.40;99.90;;;;;;4989286;28;20194;-72
2022/01/31 04:48:46;;;;;;;11.27;5.77;;;2.40;99.90;;;;;;5026615;28;20195;-71
2022/01/31 04:51:13;;;;;;;8.80;6.30;;;2.40;99.90;;;;;;5001292;28;20214;-72
2022/01/31 04:53:39;;;;;;;8.90;5.57;;;2.40;99.90;;;;;;5009006;28;20215;-72
2022/01/31 04:56:05;;;;;;;8.07;6.30;;;2.40;99.90;;;;;;4993685;28;20554;-72
2022/01/31 04:58:32;;;;;;;8.70;5.20;;;2.40;99.90;;;;;;4993055;28;20178;-72
2022/01/31 05:00:58;;;;;;;6.27;5.07;;;2.40;99.90;;;;;;4993573;28;20202;-72
2022/01/31 05:03:24;;;;;;;7.17;5.23;;;2.40;99.90;;;;;;4993229;28;20197;-72
2022/01/31 05:05:50;;;;;;;9.50;5.50;;;2.40;99.90;;;;;;4991860;28;20250;-72
2022/01/31 05:08:18;;;;;;;6.63;5.40;;;2.40;99.90;;;;;;4993223;28;20839;-72
2022/01/31 05:10:46;;;;;;;10.00;5.17;;;2.40;99.90;;;;;;4992686;28;20218;-72
2022/01/31 05:13:13;;;;;;;7.07;5.43;;;2.40;99.90;;;;;;4991580;28;20305;-72
2022/01/31 05:15:39;;;;;;;5.17;4.67;;;2.40;99.90;;;;;;5003244;28;20194;-72
2022/01/31 05:18:05;;;;;;;9.00;5.00;;;2.40;99.90;;;;;;4992640;28;20238;-72
2022/01/31 05:20:30;;;;;;;6.00;4.53;;;2.40;99.90;;;;;;4992067;28;20205;-72
2022/01/31 05:22:56;;;;;;;5.43;4.33;;;2.40;99.90;;;;;;4993122;28;20194;-72
2022/01/31 05:25:22;;;;;;;6.30;4.50;;;2.40;99.90;;;;;;4993731;28;20191;-72
2022/01/31 05:27:47;;;;;;;7.00;4.67;;;2.50;99.90;;;;;;4992519;28;20235;-72
2022/01/31 05:30:13;;;;;;;8.07;4.23;;;2.50;99.90;;;;;;4992528;28;20736;-72
2022/01/31 05:32:38;;;;;;;4.63;4.10;;;2.50;99.90;;;;;;4993168;28;20210;-72
2022/01/31 05:35:05;;;;;;;4.57;3.53;;;2.50;99.90;;;;;;4993181;28;20181;-72
2022/01/31 05:37:32;;;;;;;5.20;4.00;;;2.60;99.90;;;;;;5009121;28;20193;-72
2022/01/31 05:39:57;;;;;;;3.83;3.43;;;2.60;99.90;;;;;;5012718;28;20184;-72
2022/01/31 05:42:23;;;;;;;4.37;3.63;;;2.70;99.90;;;;;;4994257;28;20194;-72
2022/01/31 05:44:49;;;;;;;4.23;3.83;;;2.70;99.90;;;;;;4993045;28;20591;-72
2022/01/31 05:47:17;;;;;;;5.13;3.90;;;2.70;99.90;;;;;;5000769;28;20190;-72
2022/01/31 05:49:43;;;;;;;5.67;3.60;;;2.80;99.90;;;;;;4991688;28;20187;-72
2022/01/31 05:52:09;;;;;;;6.27;4.00;;;2.80;99.90;;;;;;5008248;28;20209;-72
2022/01/31 05:54:39;;;;;;;5.17;3.53;;;2.80;99.90;;;;;;4992623;28;20191;-72
2022/01/31 05:57:06;;;;;;;5.97;3.77;;;2.90;99.90;;;;;;5005499;28;20197;-72
2022/01/31 05:59:32;;;;;;;5.03;4.03;;;2.90;99.90;;;;;;4991900;28;20206;-72
2022/01/31 06:01:58;;;;;;;7.27;4.20;;;3.00;99.90;;;;;;4992793;28;20199;-72
2022/01/31 06:04:28;;;;;;;5.03;4.30;;;3.00;99.90;;;;;;4992810;28;20177;-72
2022/01/31 06:06:53;;;;;;;4.57;3.90;;;3.00;99.90;;;;;;4982983;28;20274;-72
2022/01/31 06:09:19;;;;;;;6.87;4.03;;;3.10;99.90;;;;;;4979951;28;20201;-72
2022/01/31 06:11:48;;;;;;;7.10;4.10;;;3.10;99.90;;;;;;4992508;28;20203;-72
2022/01/31 06:14:15;;;;;;;5.83;4.20;;;3.10;99.90;;;;;;4993769;28;20207;-72
2022/01/31 06:16:41;;;;;;;7.80;4.53;;;3.20;99.90;;;;;;5000925;28;20226;-72
2022/01/31 06:19:06;;;;;;;9.10;4.50;;;3.20;99.90;;;;;;4999280;28;20217;-72
2022/01/31 06:21:32;;;;;;;10.40;4.70;;;3.30;99.90;;;;;;4991385;28;20229;-72
2022/01/31 06:23:57;;;;;;;6.37;4.33;;;3.30;99.90;;;;;;4972019;28;20186;-72
2022/01/31 06:26:23;;;;;;;7.87;4.60;;;3.30;99.90;;;;;;4972528;28;20546;-72
2022/01/31 06:28:49;;;;;;;12.60;4.30;;;3.40;99.90;;;;;;4971715;28;20192;-72
2022/01/31 06:31:15;;;;;;;7.77;4.23;;;3.40;99.90;;;;;;4987713;28;20205;-72
2022/01/31 06:33:42;;;;;;;11.20;4.23;;;3.40;99.90;;;;;;4991695;28;20208;-72
2022/01/31 06:36:08;;;;;;;9.20;4.27;;;3.60;99.90;;;;;;4991791;28;20186;-72
2022/01/31 06:38:35;;;;;;;8.47;4.07;;;3.60;99.90;;;;;;5007166;28;20181;-71
2022/01/31 06:41:02;;;;;;;5.03;3.13;;;3.70;99.90;;;;;;4992016;28;20266;-72
2022/01/31 06:43:28;;;;;;;6.77;3.30;;;3.70;99.90;;;;;;4991919;28;20700;-72
2022/01/31 06:45:54;;;;;;;9.77;3.63;;;3.70;99.90;;;;;;4991937;28;20185;-72
2022/01/31 06:48:19;;;;;;;8.00;3.20;;;3.80;99.90;;;;;;4991439;28;20181;-72
2022/01/31 06:50:45;;;;;;;6.80;3.47;;;3.80;99.90;;;;;;4990440;28;20284;-72
2022/01/31 06:53:12;;;;;;;6.20;3.17;;;3.80;99.90;;;;;;4990622;28;20251;-72
2022/01/31 06:55:38;;;;;;;6.80;2.90;;;3.80;99.90;;;;;;4999701;28;20711;-72
2022/01/31 06:58:04;;;;;;;6.00;2.97;;;3.90;99.90;;;;;;4997276;28;20208;-72
2022/01/31 07:00:30;;;;;;;4.60;2.90;;;3.90;99.90;;;;;;4992091;28;20207;-72
2022/01/31 07:02:56;;;;;;;6.17;2.50;;;3.90;99.90;;;;;;4995458;28;20650;-72
2022/01/31 07:05:22;;;;;;;5.57;2.70;;;3.90;99.90;;;;;;5008105;28;20190;-72
2022/01/31 07:07:48;;;;;;;6.70;2.33;;;3.90;99.90;;;;;;5025589;28;20184;-72
2022/01/31 07:10:14;;;;;;;7.60;2.33;;;3.90;99.90;;;;;;5010231;28;20211;-73
2022/01/31 07:12:47;;;;;;;7.27;2.77;;;4.00;99.90;;;;;;5010546;28;20210;-72
2022/01/31 07:15:13;;;;;;;8.17;2.80;;;4.00;99.90;;;;;;4992759;28;20192;-72
2022/01/31 07:17:40;;;;;;;5.87;2.73;;;4.00;99.90;;;;;;4991471;28;20191;-72
2022/01/31 07:20:10;;;;;;;4.40;2.53;;;4.10;99.90;;;;;;4990600;28;20267;-72
2022/01/31 07:22:39;;;;;;;6.33;2.50;;;4.00;99.90;;;;;;4985550;28;20196;-72
2022/01/31 07:25:20;;;;;;;5.40;2.60;;;4.10;99.90;;;;;;4987876;28;20189;-72
2022/01/31 07:27:46;;;;;;;9.47;2.50;;;4.10;99.90;;;;;;4986288;28;20192;-72
2022/01/31 07:30:12;;;;;;;9.87;2.67;;;4.10;99.90;;;;;;4987685;28;20194;-72
2022/01/31 07:32:41;;;;;;;8.37;2.27;;;4.10;99.90;;;;;;4990278;28;20227;-72
2022/01/31 07:35:09;;;;;;;5.30;1.90;;;4.20;99.90;;;;;;4985779;28;20208;-72
2022/01/31 07:37:35;;;;;;;7.37;2.27;;;4.20;99.90;;;;;;5002554;28;20181;-72
2022/01/31 07:40:02;;;;;;;3.80;2.13;;;4.20;99.90;;;;;;4985073;28;20190;-72
2022/01/31 07:42:28;;;;;;;6.43;2.27;;;4.30;99.90;;;;;;4987217;28;20193;-72
2022/01/31 07:44:54;;;;;;;6.70;2.03;;;4.20;99.90;;;;;;4986465;28;20185;-72
2022/01/31 07:47:20;;;;;;;9.60;2.57;;;4.30;99.90;;;;;;4987080;28;20181;-72
2022/01/31 07:49:45;;;;;;;9.10;2.07;;;4.30;99.90;;;;;;5002669;28;20272;-72
2022/01/31 07:52:11;;;;;;;8.47;2.20;;;4.30;99.90;;;;;;5002941;28;20208;-72
2022/01/31 07:54:39;;;;;;;14.97;2.70;;;4.30;99.90;;;;;;4986614;28;20224;-72
2022/01/31 07:57:05;;;;;;;11.50;1.77;;;4.30;99.90;;;;;;5001726;28;20189;-72
2022/01/31 07:59:30;;;;;;;7.80;2.23;;;4.40;99.90;;;;;;4985733;28;20188;-72
2022/01/31 08:01:56;;;;;;;8.17;2.57;;;4.40;99.90;;;;;;4986993;28;20204;-72
2022/01/31 08:04:21;;;;;;;8.33;2.23;;;4.40;99.90;;;;;;5003546;28;20763;-72
2022/01/31 08:06:47;;;;;;;9.97;2.20;;;4.40;99.90;;;;;;5003304;28;20193;-72
2022/01/31 08:09:13;;;;;;;5.70;1.80;;;4.40;99.90;;;;;;4986477;28;20194;-72
2022/01/31 08:11:38;;;;;;;13.50;2.30;;;4.50;99.90;;;;;;4986305;28;20682;-72
2022/01/31 08:14:09;;;;;;;8.63;1.87;;;4.50;99.90;;;;;;4983040;28;20216;-72
2022/01/31 08:16:36;;;;;;;9.90;1.90;;;4.50;99.90;;;;;;5002669;28;20188;-72
2022/01/31 08:19:05;;;;;;;8.70;1.83;;;4.50;99.90;;;;;;4986050;28;20197;-72
2022/01/31 08:21:30;;;;;;;4.80;1.20;;;4.50;99.90;;;;;;5001757;28;20367;-72
2022/01/31 08:23:56;;;;;;;3.23;1.17;;;4.50;99.90;;;;;;4986700;28;20272;-72
2022/01/31 08:26:22;;;;;;;4.00;1.70;;;4.50;99.90;;;;;;5001069;28;20284;-72
2022/01/31 08:28:58;;;;;;;4.73;1.10;;;4.50;99.90;;;;;;4984637;28;20668;-72
2022/01/31 08:36:24;;;;;;;2.10;1.00;;;4.50;99.90;;;;;;4988644;28;20531;-72
2022/01/31 08:38:50;;;;;;;7.27;1.13;;;4.50;99.90;;;;;;5001798;28;20185;-72
2022/01/31 08:41:17;;;;;;;5.37;0.90;;;4.60;99.90;;;;;;4985758;28;20209;-72
2022/01/31 08:43:44;;;;;;;3.77;0.83;;;4.60;99.90;;;;;;4989360;28;20205;-72
2022/01/31 08:46:12;;;;;;;4.40;1.07;;;4.60;99.90;;;;;;4989513;28;20277;-72
2022/01/31 08:48:39;;;;;;;2.90;1.10;;;4.60;99.90;;;;;;5004039;28;20189;-72
2022/01/31 08:51:07;;;;;;;3.43;1.20;;;4.60;99.90;;;;;;4987446;28;20217;-71
2022/01/31 08:53:33;;;;;;;5.87;0.93;;;4.60;99.90;;;;;;4988274;28;20703;-72
2022/01/31 08:56:03;;;;;;;1.80;0.67;;;4.60;99.90;;;;;;4987596;28;20200;-71
2022/01/31 08:58:29;;;;;;;4.07;0.73;;;4.60;99.90;;;;;;5001038;28;20216;-72
2022/01/31 09:01:00;;;;;;;3.27;0.60;;;4.60;99.90;;;;;;4981549;28;20237;-71
2022/01/31 09:06:10;;;;;;;4.63;0.70;;;4.60;99.90;;;;;;4988213;28;20190;-71
2022/01/31 09:08:37;;;;;;;4.57;0.90;;;4.60;99.90;;;;;;4986864;28;20193;-73
2022/01/31 09:11:03;;;;;;;3.57;1.10;;;4.70;99.90;;;;;;4987921;28;20290;-71
2022/01/31 09:13:29;;;;;;;5.00;1.43;;;4.70;99.90;;;;;;4999386;28;20209;-72
2022/01/31 09:15:55;;;;;;;2.43;1.10;;;4.70;99.90;;;;;;4982687;28;20205;-71
2022/01/31 09:18:21;;;;;;;3.77;1.10;;;4.80;99.90;;;;;;4986497;28;20186;-71
2022/01/31 09:20:46;;;;;;;1.90;0.87;;;4.70;99.90;;;;;;4984348;28;20221;-72
2022/01/31 09:23:13;;;;;;;2.70;0.70;;;4.80;99.90;;;;;;4971562;28;20270;-72
2022/01/31 09:25:44;;;;;;;1.97;0.67;;;4.80;99.90;;;;;;4985566;28;20198;-71
2022/01/31 09:28:11;;;;;;;3.47;1.10;;;4.80;99.90;;;;;;4986133;28;20192;-71
2022/01/31 09:30:37;;;;;;;4.90;1.10;;;4.80;99.90;;;;;;5000268;28;20737;-70
2022/01/31 09:33:03;;;;;;;1.93;0.70;;;4.90;99.90;;;;;;4999867;28;20224;-75
2022/01/31 09:35:29;;;;;;;3.50;1.00;;;5.00;99.90;;;;;;4983688;28;20180;-70
2022/01/31 09:37:55;;;;;;;1.57;0.90;;;5.00;99.90;;;;;;4989075;28;20182;-69
2022/01/31 09:40:23;;;;;;;3.77;0.83;;;5.00;99.90;;;;;;5000421;28;20209;-69
2022/01/31 09:43:02;;;;;;;2.43;0.80;;;5.10;99.90;;;;;;4987756;28;20235;-69
2022/01/31 09:45:51;;;;;;;3.83;1.07;;;5.10;99.90;;;;;;4989673;28;20216;-69
2022/01/31 09:50:59;;;;;;;4.67;1.20;;;5.10;99.90;;;;;;4989507;28;20236;-69
2022/01/31 09:53:25;;;;;;;3.53;0.90;;;5.20;99.90;;;;;;5005155;28;20218;-72
2022/01/31 09:55:52;;;;;;;1.30;0.90;;;5.20;99.90;;;;;;5004764;28;20185;-70
2022/01/31 09:58:19;;;;;;;2.17;1.13;;;5.20;99.90;;;;;;5005172;28;20182;-70
2022/01/31 10:00:45;;;;;;;4.80;1.00;;;5.30;99.90;;;;;;4987390;28;20212;-70
2022/01/31 10:03:11;;;;;;;5.13;0.90;;;5.30;99.90;;;;;;5005077;28;20193;-70
2022/01/31 10:05:38;;;;;;;2.40;1.00;;;5.30;99.90;;;;;;4987023;28;20198;-70
2022/01/31 10:08:14;;;;;;;4.10;1.20;;;5.40;99.90;;;;;;5002267;28;20186;-69
2022/01/31 10:10:43;;;;;;;2.13;1.07;;;5.40;99.90;;;;;;4986719;28;20209;-69
2022/01/31 10:16:32;;;;;;;3.63;0.80;;;5.40;99.90;;;;;;4991280;28;20612;-70
2022/01/31 10:19:11;;;;;;;1.17;0.87;;;5.40;99.90;;;;;;5001803;28;20185;-69
2022/01/31 10:21:57;;;;;;;4.30;1.40;;;5.40;99.90;;;;;;5001752;28;20213;-68
2022/01/31 10:24:24;;;;;;;6.00;1.47;;;5.40;99.90;;;;;;5005407;28;20213;-72
2022/01/31 10:26:50;;;;;;;1.70;1.10;;;5.50;99.90;;;;;;4986639;28;20185;-72
2022/01/31 10:29:19;;;;;;;4.53;1.50;;;5.50;99.90;;;;;;4987003;28;20190;-72
2022/01/31 10:32:06;;;;;;;2.10;1.10;;;5.60;99.90;;;;;;5004492;28;20685;-72
2022/01/31 10:34:38;;;;;;;2.13;1.30;;;5.60;99.90;;;;;;4987303;28;20247;-72
2022/01/31 10:37:10;;;;;;;4.30;1.20;;;5.60;99.90;;;;;;5004560;28;20257;-72
2022/01/31 10:51:20;;;;;;;1.30;0.87;;;5.90;99.90;;;;;;4986430;28;20200;-72
2022/01/31 10:53:19;;;;;;;3.10;1.00;;;5.90;99.90;;;;;;4985648;28;20209;-72
2022/01/31 10:55:55;;;;;;;3.90;1.30;;;5.90;99.90;;;;;;4987643;28;20189;-72
2022/01/31 10:58:21;;;;;;;2.27;1.10;;;6.00;99.90;;;;;;4986288;28;20185;-72
2022/01/31 11:00:47;;;;;;;1.90;0.90;;;5.90;99.90;;;;;;4985990;28;20560;-72
2022/01/31 11:03:32;;;;;;;3.93;1.03;;;5.90;99.90;;;;;;4986558;28;20212;-72
2022/01/31 11:06:00;;;;;;;2.60;0.83;;;5.90;99.90;;;;;;5003325;28;20243;-72
2022/01/31 11:08:27;;;;;;;2.03;1.20;;;5.90;99.90;;;;;;4986708;28;20196;-72
2022/01/31 11:11:00;;;;;;;1.07;0.97;;;5.90;99.90;;;;;;5002149;28;20209;-72
2022/01/31 11:13:26;;;;;;;4.60;1.40;;;5.90;99.90;;;;;;4985353;28;20233;-72
2022/01/31 11:15:55;;;;;;;3.17;1.87;;;5.90;99.90;;;;;;5003413;28;20186;-72
2022/01/31 11:18:29;;;;;;;3.23;1.60;;;6.00;99.90;;;;;;4986994;28;20196;-72
2022/01/31 11:21:06;;;;;;;2.37;1.20;;;6.00;99.90;;;;;;4984170;28;20296;-72
2022/01/31 11:23:41;;;;;;;3.00;1.13;;;6.00;99.90;;;;;;5002366;28;20276;-72
2022/01/31 11:26:08;;;;;;;6.53;1.50;;;6.00;99.90;;;;;;5003345;28;20279;-72
2022/01/31 11:28:36;;;;;;;5.93;1.80;;;6.10;99.90;;;;;;4986592;28;20189;-72
2022/01/31 11:31:03;;;;;;;6.07;1.40;;;6.10;99.90;;;;;;4985620;28;20212;-72
2022/01/31 11:33:30;;;;;;;4.30;1.40;;;6.20;99.90;;;;;;5002618;28;20308;-72
2022/01/31 11:35:56;;;;;;;4.10;1.30;;;6.20;99.90;;;;;;5003441;28;20196;-72
2022/01/31 11:38:22;;;;;;;4.20;1.13;;;6.20;99.90;;;;;;4983488;28;20190;-72
2022/01/31 11:40:48;;;;;;;3.10;1.37;;;6.30;99.90;;;;;;5001787;28;20220;-72
2022/01/31 11:43:20;;;;;;;3.30;1.27;;;6.30;99.90;;;;;;4986515;28;20193;-72
2022/01/31 11:45:50;;;;;;;5.33;1.47;;;6.30;99.90;;;;;;4987035;28;20201;-72
2022/01/31 11:48:24;;;;;;;4.87;1.50;;;6.30;99.90;;;;;;4987528;28;20195;-72
2022/01/31 11:50:57;;;;;;;8.90;1.57;;;6.40;99.90;;;;;;4984340;28;20223;-71
2022/01/31 11:53:29;;;;;;;4.80;1.33;;;6.40;99.90;;;;;;4987004;28;20256;-72
2022/01/31 11:56:14;;;;;;;1.63;1.27;;;6.50;99.90;;;;;;4986993;28;20185;-72
2022/01/31 11:58:48;;;;;;;4.10;1.43;;;6.50;99.90;;;;;;4985710;28;20794;-72
2022/01/31 12:01:15;;;;;;;4.63;1.33;;;6.60;99.90;;;;;;4985878;28;20208;-71
2022/01/31 12:04:02;;;;;;;4.03;1.50;;;6.70;99.90;;;;;;4985965;28;20182;-73
2022/01/31 12:06:28;;;;;;;6.93;1.40;;;6.70;99.90;;;;;;4986961;28;20185;-73
2022/01/31 12:09:09;;;;;;;4.87;1.60;;;6.70;99.90;;;;;;4984954;28;20189;-73
2022/01/31 12:12:02;;;;;;;5.90;2.13;;;6.70;99.90;;;;;;4988446;28;20288;-71
2022/01/31 12:14:49;;;;;;;4.07;1.80;;;6.80;99.90;;;;;;4986748;28;20256;-71
2022/01/31 12:18:23;;;;;;;8.73;1.87;;;6.80;99.90;;;;;;4987009;28;20185;-70
2022/01/31 12:23:39;;;;;;;4.53;1.70;;;6.90;99.90;;;;;;4952899;29;20551;-70
2022/01/31 12:26:27;;;;;;;4.90;1.20;;;7.00;99.90;;;;;;4954199;29;20543;-71
2022/01/31 12:28:58;;;;;;;6.27;1.83;;;7.00;99.90;;;;;;4934347;29;20282;-70
2022/01/31 12:31:29;;;;;;;6.17;1.53;;;7.00;99.90;;;;;;4941341;29;20221;-71
2022/01/31 12:33:56;;;;;;;4.40;1.73;;;7.00;99.90;;;;;;4934027;29;20203;-70
2022/01/31 12:36:37;;;;;;;6.80;1.50;;;7.00;99.90;;;;;;4953675;28;20183;-70
2022/01/31 12:39:28;;;;;;;7.70;1.93;;;7.10;99.90;;;;;;4959357;28;20186;-71
2022/01/31 12:42:00;;;;;;;4.57;1.23;;;7.10;99.90;;;;;;4965245;28;20199;-71
2022/01/31 12:44:31;;;;;;;9.13;1.70;;;7.10;99.90;;;;;;4938204;29;20210;-71
2022/01/31 12:47:11;;;;;;;7.43;1.20;;;7.10;99.90;;;;;;4954299;29;20189;-71
2022/01/31 12:49:37;;;;;;;4.67;1.63;;;7.10;99.90;;;;;;4952502;29;20179;-71
2022/01/31 12:52:05;;;;;;;8.27;1.87;;;7.10;99.90;;;;;;4984280;28;20201;-71
2022/01/31 12:54:32;;;;;;;7.30;1.50;;;7.10;99.90;;;;;;4994056;28;20205;-72
2022/01/31 12:57:10;;;;;;;7.23;1.90;;;7.10;99.90;;;;;;4993953;28;20177;-71
2022/01/31 12:59:39;;;;;;;4.40;1.50;;;7.20;99.90;;;;;;4992707;28;20173;-71
2022/01/31 13:02:08;;;;;;;5.70;1.47;;;7.20;99.90;;;;;;4985440;28;20297;-71
2022/01/31 13:04:34;;;;;;;4.43;1.03;;;7.20;99.90;;;;;;4974392;28;20178;-71
2022/01/31 13:07:08;;;;;;;6.93;1.50;;;7.20;99.90;;;;;;4974324;28;20185;-71
2022/01/31 13:09:39;;;;;;;8.67;1.63;;;7.20;99.90;;;;;;4984908;28;20265;-71
2022/01/31 13:12:10;;;;;;;6.30;1.30;;;7.20;99.90;;;;;;4991277;28;20296;-72
2022/01/31 13:14:51;;;;;;;9.17;1.40;;;7.30;99.90;;;;;;4981488;28;20236;-72
2022/01/31 13:17:19;;;;;;;9.73;1.70;;;7.30;99.90;;;;;;4991534;28;20186;-72
2022/01/31 13:19:52;;;;;;;6.27;1.40;;;7.20;99.90;;;;;;4987702;28;20206;-72
2022/01/31 13:22:37;;;;;;;9.60;1.27;;;7.30;99.90;;;;;;5007302;28;20271;-72
2022/01/31 13:25:09;;;;;;;5.90;1.50;;;7.20;99.90;;;;;;4988603;28;20189;-72
2022/01/31 13:27:42;;;;;;;5.37;1.40;;;7.20;99.90;;;;;;4985592;28;20634;-72
2022/01/31 13:30:28;;;;;;;5.40;1.30;;;7.20;99.90;;;;;;4998988;28;20185;-71
2022/01/31 13:32:55;;;;;;;8.93;1.50;;;7.20;99.90;;;;;;5007770;28;20201;-72